createdAt,value
2023-01-29T00:02:17.776Z,78.43
2023-01-29T00:04:44.765Z,78.31
2023-01-29T00:07:12.164Z,77.99
2023-01-29T00:09:40.157Z,77.68
2023-01-29T00:12:10.731Z,78.07
2023-01-29T00:14:37.792Z,77.48
2023-01-29T00:17:05.238Z,77.42
2023-01-29T00:19:32.173Z,77.60
2023-01-29T00:21:59.840Z,78.17
2023-01-29T00:24:27.055Z,78.51
2023-01-29T00:26:55.347Z,78.43
2023-01-29T00:29:22.291Z,78.86
2023-01-29T00:31:50.272Z,78.94
2023-01-29T00:34:19.244Z,78.51
2023-01-29T00:36:46.832Z,78.84
2023-01-29T00:39:13.868Z,78.58
2023-01-29T00:42:00.120Z,78.46
2023-01-29T00:44:45.587Z,78.21
2023-01-29T00:47:45.545Z,78.66
2023-01-29T00:50:13.611Z,78.64
2023-01-29T00:52:41.549Z,78.75
2023-01-29T00:55:10.396Z,78.57
2023-01-29T00:57:38.923Z,78.37
2023-01-29T01:00:09.041Z,78.27
2023-01-29T01:02:55.384Z,78.39
2023-01-29T01:05:22.477Z,78.51
2023-01-29T01:07:54.535Z,78.58
2023-01-29T01:10:31.920Z,78.09
2023-01-29T01:13:04.250Z,77.91
2023-01-29T01:15:36.770Z,78.01
2023-01-29T01:18:04.865Z,78.02
2023-01-29T01:20:37.156Z,78.26
2023-01-29T01:23:05.148Z,78.55
2023-01-29T01:25:32.268Z,78.02
2023-01-29T01:28:03.396Z,77.74
2023-01-29T01:30:30.534Z,77.47
2023-01-29T01:32:57.827Z,77.53
2023-01-29T01:35:24.810Z,77.35
2023-01-29T01:37:52.442Z,77.76
2023-01-29T01:40:21.962Z,77.63
2023-01-29T01:42:51.035Z,77.08
2023-01-29T01:45:26.150Z,76.82
2023-01-29T01:48:03.797Z,77.11
2023-01-29T01:50:40.121Z,77.06
2023-01-29T01:53:10.956Z,77.34
2023-01-29T01:55:45.108Z,77.19
2023-01-29T01:58:21.584Z,77.60
2023-01-29T02:00:48.453Z,77.07
2023-01-29T02:03:36.224Z,77.63
2023-01-29T02:06:22.305Z,77.61
2023-01-29T02:09:19.251Z,77.84
2023-01-29T02:11:46.482Z,77.38
2023-01-29T02:14:13.818Z,77.24
2023-01-29T02:16:40.798Z,77.35
2023-01-29T02:19:27.361Z,77.29
2023-01-29T02:22:29.352Z,77.57
2023-01-29T02:25:41.722Z,77.21
2023-01-29T02:28:29.856Z,77.57
2023-01-29T02:31:22.182Z,77.90
2023-01-29T02:34:27.385Z,77.50
2023-01-29T02:37:05.051Z,77.34
2023-01-29T02:40:13.897Z,77.63
2023-01-29T02:42:57.367Z,77.95
2023-01-29T02:45:37.791Z,77.74
2023-01-29T02:48:05.546Z,78.02
2023-01-29T02:50:38.984Z,77.86
2023-01-29T02:53:16.939Z,77.48
2023-01-29T02:55:53.123Z,77.68
2023-01-29T02:58:29.102Z,77.72
2023-01-29T03:01:05.384Z,77.80
2023-01-29T03:03:42.298Z,77.36
2023-01-29T03:06:18.393Z,77.84
2023-01-29T03:09:08.475Z,78.22
2023-01-29T03:11:40.017Z,78.00
2023-01-29T03:14:20.069Z,77.44
2023-01-29T03:16:51.060Z,77.56
2023-01-29T03:19:29.296Z,77.51
2023-01-29T03:22:02.137Z,77.72
2023-01-29T03:25:01.213Z,77.92
2023-01-29T03:27:52.069Z,77.87
2023-01-29T03:30:44.668Z,78.11
2023-01-29T03:33:15.283Z,77.57
2023-01-29T03:35:49.843Z,77.63
2023-01-29T03:38:17.251Z,77.50
2023-01-29T03:40:58.639Z,77.42
2023-01-29T03:43:53.841Z,77.54
2023-01-29T03:46:29.340Z,76.96
2023-01-29T03:49:19.550Z,77.14
2023-01-29T03:52:01.074Z,77.25
2023-01-29T03:54:49.391Z,77.17
2023-01-29T03:57:45.597Z,76.87
2023-01-29T04:00:35.226Z,76.94
2023-01-29T04:03:37.993Z,76.29
2023-01-29T04:06:28.256Z,76.00
2023-01-29T04:09:04.055Z,76.50
2023-01-29T04:11:34.098Z,76.43
2023-01-29T04:14:02.196Z,76.62
2023-01-29T04:16:37.311Z,76.55
2023-01-29T04:19:06.214Z,76.41
2023-01-29T04:21:37.702Z,76.59
2023-01-29T04:24:07.772Z,76.34
2023-01-29T04:26:51.387Z,76.66
2023-01-29T04:29:59.079Z,76.12
2023-01-29T04:32:46.882Z,76.07
2023-01-29T04:35:45.426Z,75.89
2023-01-29T04:38:23.998Z,75.89
2023-01-29T04:41:04.201Z,76.09
2023-01-29T04:43:54.529Z,75.82
2023-01-29T04:46:34.153Z,75.93
2023-01-29T04:49:07.378Z,76.05
2023-01-29T04:51:51.268Z,76.15
2023-01-29T04:54:21.279Z,75.98
2023-01-29T04:57:27.037Z,75.91
2023-01-29T05:00:03.884Z,76.46
2023-01-29T05:02:34.492Z,76.00
2023-01-29T05:05:05.993Z,76.33
2023-01-29T05:07:36.209Z,75.89
2023-01-29T05:10:07.587Z,76.21
2023-01-29T05:12:38.192Z,76.21
2023-01-29T05:15:13.695Z,76.36
2023-01-29T05:17:42.596Z,76.37
2023-01-29T05:20:13.198Z,76.63
2023-01-29T05:22:42.804Z,76.59
2023-01-29T05:25:28.303Z,76.15
2023-01-29T05:28:07.307Z,76.10
2023-01-29T05:30:38.653Z,75.78
2023-01-29T05:33:15.622Z,75.79
2023-01-29T05:35:43.396Z,75.76
2023-01-29T05:38:13.119Z,75.66
2023-01-29T05:40:40.851Z,75.10
2023-01-29T05:43:19.327Z,75.14
2023-01-29T05:45:58.256Z,75.25
2023-01-29T05:48:28.993Z,74.74
2023-01-29T05:51:05.411Z,75.16
2023-01-29T05:53:34.069Z,75.54
2023-01-29T05:56:04.948Z,75.21
2023-01-29T05:58:35.207Z,75.12
2023-01-29T06:01:23.933Z,75.32
2023-01-29T06:03:51.935Z,75.48
2023-01-29T06:09:05.355Z,75.55
2023-01-29T06:11:32.312Z,75.98
2023-01-29T06:13:59.798Z,75.98
2023-01-29T06:16:27.083Z,75.70
2023-01-29T06:18:54.657Z,76.06
2023-01-29T06:21:22.299Z,76.26
2023-01-29T06:23:54.095Z,76.25
2023-01-29T06:26:22.290Z,75.70
2023-01-29T06:28:50.022Z,75.89
2023-01-29T06:31:39.927Z,75.62
2023-01-29T06:34:08.757Z,75.73
2023-01-29T06:36:35.801Z,76.24
2023-01-29T06:39:04.607Z,75.59
2023-01-29T06:41:31.746Z,75.51
2023-01-29T06:43:59.147Z,75.73
2023-01-29T06:46:26.283Z,75.40
2023-01-29T06:48:53.603Z,75.31
2023-01-29T06:51:23.069Z,74.79
2023-01-29T06:53:50.641Z,74.92
2023-01-29T06:56:17.781Z,74.77
2023-01-29T06:58:47.829Z,74.43
2023-01-29T07:01:34.219Z,74.37
2023-01-29T07:04:23.752Z,75.00
2023-01-29T07:06:51.905Z,74.91
2023-01-29T07:09:25.261Z,74.95
2023-01-29T07:11:54.747Z,74.82
2023-01-29T07:14:25.396Z,74.52
2023-01-29T07:17:04.502Z,74.88
2023-01-29T07:19:34.263Z,74.90
2023-01-29T07:22:04.079Z,75.18
2023-01-29T07:24:33.467Z,75.26
2023-01-29T07:27:01.600Z,75.31
2023-01-29T07:29:30.899Z,74.99
2023-01-29T07:31:58.077Z,74.97
2023-01-29T07:34:25.680Z,75.09
2023-01-29T07:36:54.265Z,74.87
2023-01-29T07:39:24.692Z,74.57
2023-01-29T07:41:51.861Z,74.84
2023-01-29T07:44:19.413Z,74.70
2023-01-29T07:46:46.485Z,74.63
2023-01-29T07:49:16.443Z,73.99
2023-01-29T07:51:43.588Z,74.65
2023-01-29T07:54:16.690Z,73.03
2023-01-29T07:56:44.167Z,73.46
2023-01-29T07:59:20.702Z,73.44
2023-01-29T08:01:47.895Z,73.08
2023-01-29T08:04:15.379Z,73.01
2023-01-29T08:06:44.781Z,72.41
2023-01-29T08:09:16.383Z,73.00
2023-01-29T08:11:43.574Z,72.46
2023-01-29T08:14:13.510Z,71.52
2023-01-29T08:16:40.661Z,71.81
2023-01-29T08:19:11.672Z,71.49
2023-01-29T08:21:38.737Z,71.16
2023-01-29T08:24:06.622Z,71.72
2023-01-29T08:26:34.092Z,72.02
2023-01-29T08:29:08.691Z,71.75
2023-01-29T08:31:36.175Z,71.60
2023-01-29T08:34:03.800Z,72.00
2023-01-29T08:36:30.905Z,72.20
2023-01-29T08:39:03.308Z,71.47
2023-01-29T08:41:31.054Z,71.34
2023-01-29T08:44:01.287Z,71.00
2023-01-29T08:46:28.896Z,70.60
2023-01-29T08:48:56.672Z,70.29
2023-01-29T08:51:26.230Z,69.64
2023-01-29T08:53:54.077Z,70.48
2023-01-29T08:56:21.542Z,69.32
2023-01-29T08:58:51.691Z,69.64
2023-01-29T09:01:18.641Z,69.51
2023-01-29T09:03:46.583Z,69.70
2023-01-29T09:06:21.600Z,69.67
2023-01-29T09:08:53.164Z,70.09
2023-01-29T09:11:20.291Z,70.43
2023-01-29T09:13:47.686Z,70.77
2023-01-29T09:16:15.251Z,69.58
2023-01-29T09:18:43.122Z,68.95
2023-01-29T09:21:10.722Z,66.10
2023-01-29T09:23:39.057Z,66.66
2023-01-29T09:26:08.355Z,67.75
2023-01-29T09:28:36.202Z,69.00
2023-01-29T09:31:04.272Z,67.96
2023-01-29T09:33:32.634Z,68.60
2023-01-29T09:35:59.928Z,68.41
2023-01-29T09:38:27.690Z,67.18
2023-01-29T09:41:04.183Z,67.72
2023-01-29T09:43:44.118Z,67.07
2023-01-29T09:46:18.356Z,67.05
2023-01-29T09:48:48.730Z,66.40
2023-01-29T09:51:29.390Z,66.36
2023-01-29T09:57:20.338Z,66.79
2023-01-29T09:59:50.740Z,66.57
2023-01-29T10:02:43.633Z,66.43
2023-01-29T10:05:59.441Z,66.54
2023-01-29T10:11:53.342Z,67.48
2023-01-29T10:14:49.165Z,67.98
2023-01-29T10:17:40.953Z,67.29
2023-01-29T10:20:42.009Z,67.75
2023-01-29T10:23:26.569Z,67.87
2023-01-29T10:25:54.637Z,67.20
2023-01-29T10:28:42.821Z,66.83
2023-01-29T10:31:20.855Z,67.40
2023-01-29T10:34:03.226Z,68.19
2023-01-29T10:36:38.759Z,68.86
2023-01-29T10:39:06.213Z,69.09
2023-01-29T10:41:42.705Z,67.79
2023-01-29T10:44:36.073Z,67.29
2023-01-29T10:48:09.450Z,67.91
2023-01-29T10:50:49.214Z,67.24
2023-01-29T10:53:48.968Z,68.01
2023-01-29T10:56:23.589Z,67.60
2023-01-29T10:58:55.272Z,66.91
2023-01-29T11:01:23.161Z,66.34
2023-01-29T11:04:01.823Z,67.27
2023-01-29T11:06:35.983Z,68.03
2023-01-29T11:09:26.564Z,67.23
2023-01-29T11:12:14.301Z,66.46
2023-01-29T11:14:51.976Z,64.73
2023-01-29T11:17:24.058Z,65.14
2023-01-29T11:20:49.997Z,64.85
2023-01-29T11:23:35.273Z,65.59
2023-01-29T11:26:09.427Z,65.47
2023-01-29T11:28:51.529Z,65.77
2023-01-29T11:31:38.918Z,64.92
2023-01-29T11:34:34.618Z,65.02
2023-01-29T11:37:15.961Z,64.46
2023-01-29T11:39:47.204Z,65.17
2023-01-29T11:42:22.433Z,65.61
2023-01-29T11:44:50.051Z,65.33
2023-01-29T11:47:19.135Z,64.90
2023-01-29T11:49:48.756Z,64.91
2023-01-29T11:52:19.103Z,65.89
2023-01-29T11:54:55.472Z,65.24
2023-01-29T11:57:26.142Z,65.25
2023-01-29T11:59:58.347Z,65.41
2023-01-29T12:02:38.387Z,66.20
2023-01-29T12:05:17.536Z,67.15
2023-01-29T12:07:49.069Z,66.94
2023-01-29T12:10:35.771Z,67.39
2023-01-29T12:13:12.206Z,66.76
2023-01-29T12:15:41.394Z,67.08
2023-01-29T12:18:44.426Z,66.68
2023-01-29T12:21:23.056Z,66.19
2023-01-29T12:24:04.487Z,66.26
2023-01-29T12:26:44.786Z,66.09
2023-01-29T12:29:31.986Z,66.31
2023-01-29T12:32:05.807Z,66.52
2023-01-29T12:35:02.789Z,65.91
2023-01-29T12:37:56.938Z,65.93
2023-01-29T12:40:33.174Z,66.22
2023-01-29T12:43:09.930Z,66.97
2023-01-29T12:45:37.717Z,66.24
2023-01-29T12:48:14.550Z,66.35
2023-01-29T12:50:41.719Z,66.12
2023-01-29T12:53:29.901Z,65.91
2023-01-29T12:56:05.392Z,65.08
2023-01-29T12:58:36.727Z,65.34
2023-01-29T13:01:12.543Z,65.33
2023-01-29T13:03:56.320Z,65.23
2023-01-29T13:06:29.480Z,65.10
2023-01-29T13:09:06.196Z,65.43
2023-01-29T13:11:50.188Z,65.81
2023-01-29T13:14:23.148Z,66.12
2023-01-29T13:17:11.319Z,65.56
2023-01-29T13:19:45.388Z,65.61
2023-01-29T13:22:20.566Z,65.57
2023-01-29T13:25:03.571Z,65.64
2023-01-29T13:27:34.146Z,65.47
2023-01-29T13:30:04.791Z,65.90
2023-01-29T13:32:34.626Z,66.00
2023-01-29T13:35:06.694Z,66.61
2023-01-29T13:37:39.760Z,67.10
2023-01-29T13:40:15.688Z,67.55
2023-01-29T13:42:49.028Z,68.26
2023-01-29T13:45:25.503Z,68.12
2023-01-29T13:47:57.533Z,68.91
2023-01-29T13:50:39.615Z,69.69
2023-01-29T13:53:11.506Z,70.36
2023-01-29T13:55:40.794Z,70.35
2023-01-29T13:58:33.554Z,70.47
2023-01-29T14:01:05.783Z,70.92
2023-01-29T14:04:03.406Z,71.64
2023-01-29T14:06:39.062Z,71.21
2023-01-29T14:09:34.788Z,71.49
2023-01-29T14:12:25.302Z,71.75
2023-01-29T14:15:01.617Z,71.50
2023-01-29T14:17:29.416Z,71.62
2023-01-29T14:20:20.956Z,72.01
2023-01-29T14:23:14.856Z,72.04
2023-01-29T14:25:52.184Z,71.52
2023-01-29T14:28:29.163Z,71.61
2023-01-29T14:30:56.742Z,71.59
2023-01-29T14:33:41.874Z,72.04
2023-01-29T14:36:14.525Z,72.21
2023-01-29T14:38:52.523Z,72.21
2023-01-29T14:41:31.637Z,72.70
2023-01-29T14:44:43.992Z,72.59
2023-01-29T14:47:32.769Z,72.65
2023-01-29T14:50:03.305Z,72.68
2023-01-29T14:52:42.283Z,72.75
2023-01-29T14:55:21.043Z,72.72
2023-01-29T14:57:49.419Z,72.89
2023-01-29T15:00:27.996Z,72.75
2023-01-29T15:03:02.017Z,72.48
2023-01-29T15:05:35.860Z,72.38
2023-01-29T15:08:31.421Z,72.17
2023-01-29T15:11:28.298Z,72.03
2023-01-29T15:14:06.579Z,72.53
2023-01-29T15:16:49.204Z,72.60
2023-01-29T15:19:32.261Z,72.66
2023-01-29T15:22:06.646Z,72.61
2023-01-29T15:24:33.724Z,72.39
2023-01-29T15:27:02.380Z,72.88
2023-01-29T15:29:31.956Z,73.08
2023-01-29T15:32:02.033Z,72.77
2023-01-29T15:34:29.299Z,72.73
2023-01-29T15:36:58.064Z,72.60
2023-01-29T15:39:27.168Z,72.80
2023-01-29T15:42:14.393Z,72.91
2023-01-29T15:44:45.790Z,72.68
2023-01-29T15:47:14.381Z,72.83
2023-01-29T15:49:42.296Z,72.50
2023-01-29T15:52:21.998Z,72.93
2023-01-29T15:54:52.078Z,72.63
2023-01-29T15:57:26.306Z,72.70
2023-01-29T15:59:57.343Z,72.65
2023-01-29T16:02:45.851Z,72.80
2023-01-29T16:05:21.481Z,72.81
2023-01-29T16:07:51.153Z,72.77
2023-01-29T16:10:22.229Z,73.18
2023-01-29T16:12:51.770Z,72.84
2023-01-29T16:15:40.341Z,72.82
2023-01-29T16:18:47.716Z,72.73
2023-01-29T16:21:33.761Z,72.96
2023-01-29T16:24:10.319Z,73.24
2023-01-29T16:26:44.367Z,72.80
2023-01-29T16:32:01.955Z,72.74
2023-01-29T16:34:33.112Z,72.81
2023-01-29T16:37:11.163Z,72.93
2023-01-29T16:39:45.052Z,72.98
2023-01-29T16:42:20.003Z,72.76
2023-01-29T16:45:02.479Z,73.26
2023-01-29T16:47:44.506Z,73.27
2023-01-29T16:50:46.166Z,73.31
2023-01-29T16:53:23.474Z,73.29
2023-01-29T16:55:52.900Z,73.21
2023-01-29T16:58:23.838Z,73.25
2023-01-29T17:00:55.070Z,73.37
2023-01-29T17:03:41.516Z,73.51
2023-01-29T17:06:33.868Z,72.91
2023-01-29T17:09:01.522Z,73.05
2023-01-29T17:11:41.883Z,73.32
2023-01-29T17:14:13.996Z,73.22
2023-01-29T17:16:56.787Z,72.81
2023-01-29T17:19:25.456Z,73.15
2023-01-29T17:21:54.393Z,72.54
2023-01-29T17:24:21.583Z,72.33
2023-01-29T17:26:49.479Z,72.80
2023-01-29T17:29:31.915Z,72.98
2023-01-29T17:32:02.251Z,72.67
2023-01-29T17:34:29.454Z,72.62
2023-01-29T17:36:57.432Z,72.53
2023-01-29T17:39:25.732Z,72.67
2023-01-29T17:41:58.158Z,72.08
2023-01-29T17:44:28.709Z,72.05
2023-01-29T17:46:56.292Z,72.21
2023-01-29T17:49:27.690Z,72.35
2023-01-29T17:51:58.618Z,72.44
2023-01-29T17:54:30.643Z,71.95
2023-01-29T17:57:01.240Z,72.24
2023-01-29T17:59:34.004Z,72.08
2023-01-29T18:02:02.077Z,72.35
2023-01-29T18:04:29.154Z,72.14
2023-01-29T18:07:04.707Z,71.60
2023-01-29T18:09:32.348Z,71.88
2023-01-29T18:12:00.049Z,72.13
2023-01-29T18:14:27.858Z,71.73
2023-01-29T18:16:57.272Z,71.83
2023-01-29T18:19:31.189Z,72.04
2023-01-29T18:21:58.615Z,71.36
2023-01-29T18:24:26.749Z,71.33
2023-01-29T18:26:54.138Z,71.38
2023-01-29T18:29:21.975Z,71.98
2023-01-29T18:31:50.807Z,71.75
2023-01-29T18:34:18.624Z,72.16
2023-01-29T18:36:52.819Z,72.05
2023-01-29T18:39:23.341Z,71.72
2023-01-29T18:41:52.251Z,71.55
2023-01-29T18:44:19.454Z,72.25
2023-01-29T18:46:49.779Z,72.33
2023-01-29T18:49:16.895Z,72.36
2023-01-29T18:51:45.685Z,72.21
2023-01-29T18:54:15.798Z,72.46
2023-01-29T18:57:06.188Z,72.63
2023-01-29T18:59:32.623Z,72.89
2023-01-29T19:02:01.016Z,72.63
2023-01-29T19:04:28.022Z,72.48
2023-01-29T19:06:55.612Z,72.62
2023-01-29T19:09:26.635Z,72.60
2023-01-29T19:11:54.126Z,72.66
2023-01-29T19:14:23.753Z,72.87
2023-01-29T19:16:51.161Z,72.46
2023-01-29T19:19:18.823Z,72.50
2023-01-29T19:21:46.382Z,72.11
2023-01-29T19:24:14.823Z,72.62
2023-01-29T19:26:42.411Z,72.18
2023-01-29T19:29:10.549Z,72.35
2023-01-29T19:31:38.098Z,72.70
2023-01-29T19:34:05.361Z,72.57
2023-01-29T19:36:32.922Z,72.39
2023-01-29T19:39:00.181Z,71.79
2023-01-29T19:41:27.844Z,72.57
2023-01-29T19:43:55.057Z,72.45
2023-01-29T19:46:22.656Z,72.63
2023-01-29T19:48:50.675Z,72.40
2023-01-29T19:51:21.520Z,72.11
2023-01-29T19:53:48.783Z,72.39
2023-01-29T19:56:17.783Z,71.95
2023-01-29T19:58:45.016Z,71.86
2023-01-29T20:01:20.749Z,72.18
2023-01-29T20:03:50.089Z,72.36
2023-01-29T20:06:32.268Z,72.09
2023-01-29T20:09:02.279Z,72.11
2023-01-29T20:11:30.904Z,71.91
2023-01-29T20:13:58.957Z,71.79
2023-01-29T20:16:26.837Z,71.85
2023-01-29T20:18:54.211Z,71.27
2023-01-29T20:21:22.534Z,71.74
2023-01-29T20:23:50.853Z,71.39
2023-01-29T20:26:19.683Z,71.16
2023-01-29T20:28:49.473Z,71.42
2023-01-29T20:31:17.020Z,71.37
2023-01-29T20:33:44.516Z,70.98
2023-01-29T20:36:13.780Z,70.38
2023-01-29T20:38:41.167Z,70.19
2023-01-29T20:41:19.374Z,70.05
2023-01-29T20:43:47.431Z,69.93
2023-01-29T20:46:14.982Z,69.48
2023-01-29T20:48:42.595Z,69.42
2023-01-29T20:51:15.766Z,69.42
2023-01-29T20:53:46.023Z,69.46
2023-01-29T20:56:15.313Z,69.53
2023-01-29T20:58:42.834Z,69.61
2023-01-29T21:01:15.284Z,69.80
2023-01-29T21:03:46.392Z,70.00
2023-01-29T21:06:23.459Z,70.10
2023-01-29T21:08:52.094Z,70.60
2023-01-29T21:11:21.335Z,70.68
2023-01-29T21:13:48.409Z,70.93
2023-01-29T21:16:16.038Z,71.35
2023-01-29T21:18:48.349Z,71.71
2023-01-29T21:21:35.970Z,71.82
2023-01-29T21:24:03.214Z,71.81
2023-01-29T21:26:30.590Z,72.68
2023-01-29T21:28:57.623Z,72.46
2023-01-29T21:31:28.915Z,72.75
2023-01-29T21:33:55.987Z,72.52
2023-01-29T21:36:23.441Z,72.73
2023-01-29T21:38:50.432Z,73.08
2023-01-29T21:41:27.011Z,73.08
2023-01-29T21:43:54.064Z,73.18
2023-01-29T21:46:21.563Z,73.52
2023-01-29T21:48:48.550Z,73.50
2023-01-29T21:51:24.118Z,74.12
2023-01-29T21:53:51.223Z,73.65
2023-01-29T21:56:19.770Z,73.98
2023-01-29T21:58:50.423Z,74.53
2023-01-29T22:01:38.114Z,74.01
2023-01-29T22:04:17.206Z,73.67
2023-01-29T22:06:47.583Z,74.22
2023-01-29T22:09:16.287Z,74.16
2023-01-29T22:11:43.746Z,74.37
2023-01-29T22:14:13.260Z,73.94
2023-01-29T22:16:40.714Z,74.28
2023-01-29T22:19:07.735Z,73.90
2023-01-29T22:21:36.029Z,74.21
2023-01-29T22:24:07.960Z,74.01
2023-01-29T22:26:39.664Z,74.22
2023-01-29T22:29:07.410Z,74.40
2023-01-29T22:31:38.366Z,74.57
2023-01-29T22:34:09.588Z,74.20
2023-01-29T22:36:39.348Z,73.71
2023-01-29T22:39:09.127Z,73.86
2023-01-29T22:44:22.018Z,73.82
2023-01-29T22:49:50.369Z,72.93
2023-01-29T22:55:35.648Z,73.28
2023-01-29T22:58:12.159Z,73.00
2023-01-29T23:00:47.825Z,73.08
2023-01-29T23:03:19.509Z,72.93
2023-01-29T23:05:47.732Z,73.07
2023-01-29T23:22:15.470Z,73.37
2023-01-29T23:24:43.683Z,73.22
2023-01-29T23:27:16.483Z,73.28
2023-01-29T23:29:47.707Z,73.47
2023-01-29T23:32:17.563Z,73.57
2023-01-29T23:34:47.670Z,73.64
2023-01-29T23:37:15.768Z,73.40
2023-01-29T23:39:46.383Z,73.64
2023-01-29T23:42:13.425Z,73.21
2023-01-29T23:47:25.106Z,73.32
2023-01-29T23:49:53.342Z,73.07
2023-01-29T23:52:21.007Z,73.06
2023-01-29T23:54:52.817Z,73.00
2023-01-29T23:57:22.130Z,73.03
2023-01-29T23:59:49.890Z,72.51
